Nuka Arctica — OXYH2 — position and weather

sailwx.info

Track history (hours):
 
Tides and Currents Weather Stations Pressure Air Temp Water Temp Dewpoint Dewpoint Depression Visibility Wind Speed Wind Dir Waves Ship Positions

Nuka Arctica

Last reported at 2017-Feb-16 14:07 UTC. Time now 2017-Feb-22 10:50 UTC.
Position N 58°33' E 004°25'.

Length 132.92 m; beam 24 m; draft 7.65 m.

Type: Cargo ship. MMSI: 219655000.

Date/timePositionNaut miles runAvg speedWind from/ knotsBaromVisibWave heightAir tempDewpointWater temp
2017-Feb-16 14:07N 58°33' E 004°25'916.2
2017-Feb-16 13:34N 58°30' E 004°41'1717.2
2017-Feb-16 12:34N 58°24' E 005°12'1716.9
2017-Feb-16 11:34N 58°14' E 005°37'1515.3
2017-Feb-16 10:33N 58°04' E 006°00'1514.9
2017-Feb-16 09:31N 57°54' E 006°22'1414.8
2017-Feb-16 08:33N 57°47' E 006°45'1515.4
2017-Feb-16 07:33N 57°47' E 007°14'1515.2
2017-Feb-16 06:33N 57°46' E 007°43'1616.0
2017-Feb-16 05:33N 57°47' E 008°13'4715.6
2017-Feb-16 02:32N 57°47' E 009°41'1616.1
2017-Feb-16 01:33N 57°48' E 010°10'1717.0
2017-Feb-16 00:33N 57°48' E 010°42'3115.5
2017-Feb-15 22:33N 57°17' E 010°42'1414.0
2017-Feb-15 21:33N 57°03' E 010°49'1212.4
2017-Feb-15 20:34N 56°51' E 010°47'1211.5
2017-Feb-15 19:33N 56°56' E 010°28'1110.8
2017-Feb-15 18:33N 57°00' E 010°10'4 4.4
2017-Feb-15 17:32N 57°03' E 010°03'0 0.0
2017-Feb-15 16:29N 57°03' E 010°03'0 0.0
2017-Feb-15 15:29N 57°03' E 010°03'0 0.0
2017-Feb-15 14:32N 57°03' E 010°03'0 0.0
2017-Feb-15 13:32N 57°03' E 010°03'1 0.5
2017-Feb-15 12:29N 57°03' E 010°04'2 2.1
2017-Feb-15 11:33N 57°01' E 010°05'2 1.8
2017-Feb-15 10:30N 57°03' E 010°03'0 0.0
2017-Feb-15 09:30N 57°03' E 010°03'0 0.0
2017-Feb-15 08:30N 57°03' E 010°03'0 0.0
2017-Feb-15 07:30N 57°03' E 010°03'0 0.0
2017-Feb-15 06:30N 57°03' E 010°03'0 0.0
2017-Feb-15 05:30N 57°03' E 010°03'0 0.0
2017-Feb-15 04:30N 57°03' E 010°03'0 0.0
2017-Feb-15 03:30N 57°03' E 010°03'0 0.0
2017-Feb-15 02:30N 57°03' E 010°03'0 0.0
2017-Feb-15 01:30N 57°03' E 010°03'0 0.0
2017-Feb-15 00:30N 57°03' E 010°03'0 0.0
2017-Feb-14 23:30N 57°03' E 010°03'0 0.0
2017-Feb-14 22:30N 57°03' E 010°03'0 0.0
2017-Feb-14 21:30N 57°03' E 010°03'0 0.0
2017-Feb-14 20:30N 57°03' E 010°03'0 0.0
2017-Feb-14 19:30N 57°03' E 010°03'0 0.0
2017-Feb-14 18:30N 57°03' E 010°03'0 0.0
2017-Feb-14 17:30N 57°03' E 010°03'0 0.0
2017-Feb-14 16:30N 57°03' E 010°03'0 0.0
2017-Feb-14 15:30N 57°03' E 010°03'0 0.0
2017-Feb-14 14:30N 57°03' E 010°03'0 0.0
2017-Feb-14 13:30N 57°03' E 010°03'0 0.0
2017-Feb-14 12:30N 57°03' E 010°03'0 0.0
2017-Feb-14 11:28N 57°03' E 010°03'0 0.0
2017-Feb-14 10:31N 57°03' E 010°03'0 0.0
2017-Feb-14 09:31N 57°03' E 010°03'0 0.0
2017-Feb-14 08:31N 57°03' E 010°03'0 0.0
2017-Feb-14 07:28N 57°03' E 010°03'0 0.0
2017-Feb-14 06:31N 57°03' E 010°03'0 0.0
2017-Feb-14 05:31N 57°03' E 010°03'0 0.0
2017-Feb-14 04:31N 57°03' E 010°03'0 0.0
2017-Feb-14 03:31N 57°03' E 010°03'0 0.0
2017-Feb-14 02:28N 57°03' E 010°03'0 0.0
2017-Feb-14 01:28N 57°03' E 010°03'0 0.0
2017-Feb-14 00:31N 57°03' E 010°03'0 0.0
2017-Feb-13 23:31N 57°03' E 010°03'0 0.0
2017-Feb-13 22:31N 57°03' E 010°03'0 0.0
2017-Feb-13 21:31N 57°03' E 010°03'0 0.0
2017-Feb-13 20:28N 57°03' E 010°03'0 0.0
2017-Feb-13 19:28N 57°03' E 010°03'0 0.0
2017-Feb-13 18:31N 57°03' E 010°03'0 0.0
2017-Feb-13 17:31N 57°03' E 010°03'0 0.0
2017-Feb-13 16:31N 57°03' E 010°03'0 0.0
2017-Feb-13 15:31N 57°03' E 010°03'0 0.0
2017-Feb-13 14:31N 57°03' E 010°03'0 0.0
2017-Feb-13 13:31N 57°03' E 010°03'0 0.0
2017-Feb-13 12:31N 57°03' E 010°03'0 0.0
2017-Feb-13 11:31N 57°03' E 010°03'0 0.0
2017-Feb-13 10:31N 57°03' E 010°03'0 0.0
2017-Feb-13 09:31N 57°03' E 010°03'0 0.0
2017-Feb-13 08:33N 57°03' E 010°03'5 4.5
2017-Feb-13 07:33N 57°00' E 010°10'1510.3
2017-Feb-13 06:05N 56°52' E 010°34'14 8.5
2017-Feb-13 04:24N 57°04' E 010°49'1212.9
2017-Feb-13 03:27N 57°16' E 010°42'1213.4
2017-Feb-13 02:34N 57°28' E 010°44'1514.9
2017-Feb-13 01:33N 57°43' E 010°45'1211.6
2017-Feb-13 00:33N 57°46' E 010°24'1413.7
2017-Feb-12 23:33N 57°44' E 009°59'1414.3
2017-Feb-12 22:34N 57°42' E 009°32'1615.1
2017-Feb-12 21:29N 57°39' E 009°03'1614.8
2017-Feb-12 20:25N 57°37' E 008°34'5814.6
2017-Feb-12 16:29N 57°35' E 006°46'1313.9
2017-Feb-12 15:33N 57°36' E 006°22'  
Track history (hours):
 
Tides and Currents Weather Stations Pressure Air Temp Water Temp Dewpoint Dewpoint Depression Visibility Wind Speed Wind Dir Waves Ship Positions

Nuka Arctica

Last reported at 2017-Feb-16 14:07 UTC. Time now 2017-Feb-22 10:50 UTC.
Position N 58°33' E 004°25'.

Length 132.92 m; beam 24 m; draft 7.65 m.

Type: Cargo ship. MMSI: 219655000.

Date/timePositionNaut miles runAvg speedWind from/ knotsBaromVisibWave heightAir tempDewpointWater temp
2017-Feb-16 14:07N 58°33' E 004°25'916.2
2017-Feb-16 13:34N 58°30' E 004°41'1717.2
2017-Feb-16 12:34N 58°24' E 005°12'1716.9
2017-Feb-16 11:34N 58°14' E 005°37'1515.3
2017-Feb-16 10:33N 58°04' E 006°00'1514.9
2017-Feb-16 09:31N 57°54' E 006°22'1414.8
2017-Feb-16 08:33N 57°47' E 006°45'1515.4
2017-Feb-16 07:33N 57°47' E 007°14'1515.2
2017-Feb-16 06:33N 57°46' E 007°43'1616.0
2017-Feb-16 05:33N 57°47' E 008°13'4715.6
2017-Feb-16 02:32N 57°47' E 009°41'1616.1
2017-Feb-16 01:33N 57°48' E 010°10'1717.0
2017-Feb-16 00:33N 57°48' E 010°42'3115.5
2017-Feb-15 22:33N 57°17' E 010°42'1414.0
2017-Feb-15 21:33N 57°03' E 010°49'1212.4
2017-Feb-15 20:34N 56°51' E 010°47'1211.5
2017-Feb-15 19:33N 56°56' E 010°28'1110.8
2017-Feb-15 18:33N 57°00' E 010°10'4 4.4
2017-Feb-15 17:32N 57°03' E 010°03'0 0.0
2017-Feb-15 16:29N 57°03' E 010°03'0 0.0
2017-Feb-15 15:29N 57°03' E 010°03'0 0.0
2017-Feb-15 14:32N 57°03' E 010°03'0 0.0
2017-Feb-15 13:32N 57°03' E 010°03'1 0.5
2017-Feb-15 12:29N 57°03' E 010°04'2 2.1
2017-Feb-15 11:33N 57°01' E 010°05'2 1.8
2017-Feb-15 10:30N 57°03' E 010°03'0 0.0
2017-Feb-15 09:30N 57°03' E 010°03'0 0.0
2017-Feb-15 08:30N 57°03' E 010°03'0 0.0
2017-Feb-15 07:30N 57°03' E 010°03'0 0.0
2017-Feb-15 06:30N 57°03' E 010°03'0 0.0
2017-Feb-15 05:30N 57°03' E 010°03'0 0.0
2017-Feb-15 04:30N 57°03' E 010°03'0 0.0
2017-Feb-15 03:30N 57°03' E 010°03'0 0.0
2017-Feb-15 02:30N 57°03' E 010°03'0 0.0
2017-Feb-15 01:30N 57°03' E 010°03'0 0.0
2017-Feb-15 00:30N 57°03' E 010°03'0 0.0
2017-Feb-14 23:30N 57°03' E 010°03'0 0.0
2017-Feb-14 22:30N 57°03' E 010°03'0 0.0
2017-Feb-14 21:30N 57°03' E 010°03'0 0.0
2017-Feb-14 20:30N 57°03' E 010°03'0 0.0
2017-Feb-14 19:30N 57°03' E 010°03'0 0.0
2017-Feb-14 18:30N 57°03' E 010°03'0 0.0
2017-Feb-14 17:30N 57°03' E 010°03'0 0.0
2017-Feb-14 16:30N 57°03' E 010°03'0 0.0
2017-Feb-14 15:30N 57°03' E 010°03'0 0.0
2017-Feb-14 14:30N 57°03' E 010°03'0 0.0
2017-Feb-14 13:30N 57°03' E 010°03'0 0.0
2017-Feb-14 12:30N 57°03' E 010°03'0 0.0
2017-Feb-14 11:28N 57°03' E 010°03'0 0.0
2017-Feb-14 10:31N 57°03' E 010°03'0 0.0
2017-Feb-14 09:31N 57°03' E 010°03'0 0.0
2017-Feb-14 08:31N 57°03' E 010°03'0 0.0
2017-Feb-14 07:28N 57°03' E 010°03'0 0.0
2017-Feb-14 06:31N 57°03' E 010°03'0 0.0
2017-Feb-14 05:31N 57°03' E 010°03'0 0.0
2017-Feb-14 04:31N 57°03' E 010°03'0 0.0
2017-Feb-14 03:31N 57°03' E 010°03'0 0.0
2017-Feb-14 02:28N 57°03' E 010°03'0 0.0
2017-Feb-14 01:28N 57°03' E 010°03'0 0.0
2017-Feb-14 00:31N 57°03' E 010°03'0 0.0
2017-Feb-13 23:31N 57°03' E 010°03'0 0.0
2017-Feb-13 22:31N 57°03' E 010°03'0 0.0
2017-Feb-13 21:31N 57°03' E 010°03'0 0.0
2017-Feb-13 20:28N 57°03' E 010°03'0 0.0
2017-Feb-13 19:28N 57°03' E 010°03'0 0.0
2017-Feb-13 18:31N 57°03' E 010°03'0 0.0
2017-Feb-13 17:31N 57°03' E 010°03'0 0.0
2017-Feb-13 16:31N 57°03' E 010°03'0 0.0
2017-Feb-13 15:31N 57°03' E 010°03'0 0.0
2017-Feb-13 14:31N 57°03' E 010°03'0 0.0
2017-Feb-13 13:31N 57°03' E 010°03'0 0.0
2017-Feb-13 12:31N 57°03' E 010°03'0 0.0
2017-Feb-13 11:31N 57°03' E 010°03'0 0.0
2017-Feb-13 10:31N 57°03' E 010°03'0 0.0
2017-Feb-13 09:31N 57°03' E 010°03'0 0.0
2017-Feb-13 08:33N 57°03' E 010°03'5 4.5
2017-Feb-13 07:33N 57°00' E 010°10'1510.3
2017-Feb-13 06:05N 56°52' E 010°34'14 8.5
2017-Feb-13 04:24N 57°04' E 010°49'1212.9
2017-Feb-13 03:27N 57°16' E 010°42'1213.4
2017-Feb-13 02:34N 57°28' E 010°44'1514.9
2017-Feb-13 01:33N 57°43' E 010°45'1211.6
2017-Feb-13 00:33N 57°46' E 010°24'1413.7
2017-Feb-12 23:33N 57°44' E 009°59'1414.3
2017-Feb-12 22:34N 57°42' E 009°32'1615.1
2017-Feb-12 21:29N 57°39' E 009°03'1614.8
2017-Feb-12 20:25N 57°37' E 008°34'5814.6
2017-Feb-12 16:29N 57°35' E 006°46'1313.9
2017-Feb-12 15:33N 57°36' E 006°22'  

Dump ship's entire track history